Time;durP1;ratioP1;P1;durP2;ratioP2;P2;SDS_P1;SDS_P2;PMS_P1;PMS_P2;Temp;Humidity;BMP_temperature;BMP_pressure;BME280_temperature;BME280_humidity;BME280_pressure;Samples;Min_cycle;Max_cycle;Signal;HPM_P1;HPM_P2
2023/09/12 00:01:57;;;;;;;0.00;0.00;;;;;;;19.18;100.00;101359.19;5112012;28;20032;-44
2023/09/12 00:04:22;;;;;;;0.00;0.00;;;;;;;19.15;100.00;101352.28;5106600;28;20523;-47
2023/09/12 00:06:47;;;;;;;0.00;0.00;;;;;;;19.12;100.00;101358.19;5097465;28;20060;-48
2023/09/12 00:09:13;;;;;;;0.00;0.00;;;;;;;19.11;100.00;101363.88;5095153;28;20028;-48
2023/09/12 00:11:38;;;;;;;0.00;0.00;;;;;;;19.10;100.00;101357.59;5111121;27;20028;-47
2023/09/12 00:14:04;;;;;;;0.00;0.00;;;;;;;19.09;100.00;101358.66;5111041;28;20517;-46
2023/09/12 00:16:29;;;;;;;0.00;0.00;;;;;;;19.05;100.00;101354.69;5100099;28;20057;-47
2023/09/12 00:18:54;;;;;;;0.00;0.00;;;;;;;19.00;100.00;101349.09;5093485;28;20501;-47
2023/09/12 00:21:20;;;;;;;0.00;0.00;;;;;;;18.95;100.00;101344.28;5111985;28;20031;-45
2023/09/12 00:23:45;;;;;;;0.00;0.00;;;;;;;18.90;100.00;101344.13;5106527;28;20355;-45
2023/09/12 00:26:10;;;;;;;0.00;0.00;;;;;;;18.87;100.00;101350.03;5095110;28;20020;-46
2023/09/12 00:28:38;;;;;;;0.00;0.00;;;;;;;18.92;100.00;101352.94;5095301;28;20028;-47
2023/09/12 00:31:03;;;;;;;0.00;0.00;;;;;;;18.87;100.00;101344.59;5110017;28;20632;-47
2023/09/12 00:33:29;;;;;;;0.00;0.00;;;;;;;18.85;100.00;101347.56;5106328;28;20118;-50
2023/09/12 00:35:54;;;;;;;0.00;0.00;;;;;;;18.86;100.00;101348.38;5097056;28;20055;-48
2023/09/12 00:38:19;;;;;;;0.00;0.00;;;;;;;18.89;100.00;101342.47;5091979;28;20170;-50
2023/09/12 00:40:45;;;;;;;0.00;0.00;;;;;;;18.88;100.00;101339.97;5100060;28;20610;-45
2023/09/12 00:43:10;;;;;;;0.00;0.00;;;;;;;18.90;100.00;101330.50;5092533;28;20035;-45
2023/09/12 00:45:36;;;;;;;0.00;0.00;;;;;;;18.85;100.00;101333.94;5092862;28;20035;-46
2023/09/12 00:48:03;;;;;;;0.00;0.00;;;;;;;18.84;100.00;101328.69;5103052;28;20046;-44
2023/09/12 00:50:29;;;;;;;0.00;0.00;;;;;;;18.85;100.00;101324.88;5094549;28;20023;-49
2023/09/12 00:52:55;;;;;;;0.00;0.00;;;;;;;18.86;100.00;101323.84;5104682;28;20036;-47
2023/09/12 00:55:20;;;;;;;0.00;0.00;;;;;;;18.84;100.00;101324.06;5099984;28;20038;-47
2023/09/12 00:57:46;;;;;;;0.00;0.00;;;;;;;18.88;100.00;101324.47;5104300;28;20537;-46
2023/09/12 01:00:13;;;;;;;0.00;0.00;;;;;;;18.89;100.00;101328.84;5107211;28;20047;-48
2023/09/12 01:02:41;;;;;;;0.00;0.00;;;;;;;18.87;100.00;101320.03;5098400;27;20539;-46
2023/09/12 01:05:07;;;;;;;0.00;0.00;;;;;;;18.85;100.00;101320.28;5106785;28;20067;-47
2023/09/12 01:07:33;;;;;;;0.00;0.00;;;;;;;18.82;100.00;101322.63;5093613;28;20028;-48
2023/09/12 01:09:58;;;;;;;0.00;0.00;;;;;;;18.79;100.00;101314.88;5101020;28;20028;-46
2023/09/12 01:12:24;;;;;;;0.00;0.00;;;;;;;18.76;100.00;101315.34;5099600;28;20038;-50
2023/09/12 01:14:49;;;;;;;0.00;0.00;;;;;;;18.76;100.00;101318.91;5109704;28;20107;-48
2023/09/12 01:17:15;;;;;;;0.00;0.00;;;;;;;18.74;100.00;101322.88;5111071;28;20447;-45
2023/09/12 01:19:40;;;;;;;0.00;0.00;;;;;;;18.71;100.00;101309.69;5103250;28;20099;-45
2023/09/12 01:22:20;;;;;;;0.00;0.00;;;;;;;18.69;100.00;101309.06;5106093;28;20483;-47
2023/09/12 01:25:07;;;;;;;0.00;0.00;;;;;;;18.69;100.00;101301.72;5097273;28;20032;-47
2023/09/12 01:27:44;;;;;;;0.00;0.00;;;;;;;18.67;100.00;101303.88;5098378;28;20108;-45
2023/09/12 01:30:10;;;;;;;0.00;0.00;;;;;;;18.60;100.00;101298.47;5106547;28;20469;-47
2023/09/12 01:32:36;;;;;;;0.00;0.00;;;;;;;18.58;100.00;101297.84;5102482;28;20036;-48
2023/09/12 01:35:05;;;;;;;0.00;0.00;;;;;;;18.59;100.00;101304.16;5103920;28;20024;-48
2023/09/12 01:37:30;;;;;;;0.00;0.00;;;;;;;18.55;100.00;101309.19;5111546;28;20051;-46
2023/09/12 01:39:56;;;;;;;0.00;0.00;;;;;;;18.55;100.00;101297.47;5091215;28;20466;-48
2023/09/12 01:42:22;;;;;;;0.00;0.00;;;;;;;18.56;100.00;101304.56;5091362;28;20038;-44
2023/09/12 01:44:51;;;;;;;0.00;0.00;;;;;;;18.55;100.00;101295.56;5091435;28;20028;-45
2023/09/12 01:47:17;;;;;;;0.00;0.00;;;;;;;18.56;100.00;101294.53;5110464;28;20229;-46
2023/09/12 01:49:44;;;;;;;0.00;0.00;;;;;;;18.54;100.00;101296.63;5129007;28;20023;-45
2023/09/12 01:52:10;;;;;;;0.00;0.00;;;;;;;18.53;100.00;101305.84;5103039;28;20031;-45
2023/09/12 01:54:36;;;;;;;0.00;0.00;;;;;;;18.52;100.00;101293.31;5090061;28;20698;-45
2023/09/12 01:57:02;;;;;;;0.00;0.00;;;;;;;18.52;100.00;101295.19;5090142;28;20718;-46
2023/09/12 01:59:29;;;;;;;0.00;0.00;;;;;;;18.50;100.00;101289.13;5090631;28;20123;-46
2023/09/12 02:01:54;;;;;;;0.00;0.00;;;;;;;18.49;100.00;101288.31;5090555;28;20055;-44
2023/09/12 02:04:20;;;;;;;0.00;0.00;;;;;;;18.47;100.00;101290.41;5090542;28;20079;-45
2023/09/12 02:06:45;;;;;;;0.00;0.00;;;;;;;18.49;100.00;101290.19;5094197;28;20028;-44
2023/09/12 02:09:10;;;;;;;0.00;0.00;;;;;;;18.42;100.00;101292.97;5103592;28;20503;-46
2023/09/12 02:11:36;;;;;;;0.00;0.00;;;;;;;18.41;100.00;101291.31;5090895;28;20032;-45
2023/09/12 02:14:02;;;;;;;0.00;0.00;;;;;;;18.40;100.00;101300.53;5090798;28;20058;-44
2023/09/12 02:16:27;;;;;;;0.00;0.00;;;;;;;18.38;100.00;101297.22;5091091;28;20103;-47
2023/09/12 02:18:53;;;;;;;0.00;0.00;;;;;;;18.37;100.00;101300.97;5090172;28;20122;-48
2023/09/12 02:21:18;;;;;;;0.00;0.00;;;;;;;18.37;100.00;101301.81;5099660;28;20023;-48
2023/09/12 02:23:43;;;;;;;0.00;0.00;;;;;;;18.36;100.00;101310.22;5113098;28;20032;-45
2023/09/12 02:26:09;;;;;;;0.00;0.00;;;;;;;18.41;100.00;101313.13;5097113;28;20077;-48
2023/09/12 02:28:34;;;;;;;0.00;0.00;;;;;;;18.40;100.00;101316.88;5094515;28;20466;-44
2023/09/12 02:30:59;;;;;;;0.00;0.00;;;;;;;18.40;100.00;101305.97;5093826;28;20502;-45
2023/09/12 02:33:25;;;;;;;0.00;0.00;;;;;;;18.39;100.00;101304.31;5097543;28;20040;-48
2023/09/12 02:35:50;;;;;;;0.00;0.00;;;;;;;18.39;100.00;101301.59;5099097;28;20024;-46
2023/09/12 02:38:17;;;;;;;0.00;0.00;;;;;;;18.37;100.00;101298.25;5094505;28;20036;-45
2023/09/12 02:40:42;;;;;;;0.00;0.00;;;;;;;18.35;100.00;101301.22;5094139;28;20032;-47
2023/09/12 02:43:08;;;;;;;0.00;0.00;;;;;;;18.36;100.00;101299.31;5112093;28;20049;-49
2023/09/12 02:45:33;;;;;;;0.00;0.00;;;;;;;18.36;100.00;101304.78;5114710;28;20469;-47
2023/09/12 02:47:58;;;;;;;0.00;0.00;;;;;;;18.38;100.00;101302.66;5105484;28;20470;-46
2023/09/12 02:50:24;;;;;;;0.00;0.00;;;;;;;18.36;100.00;101293.88;5093655;28;20452;-45
2023/09/12 02:52:49;;;;;;;0.00;0.00;;;;;;;18.35;100.00;101297.63;5094111;28;20066;-46
2023/09/12 02:55:14;;;;;;;0.00;0.00;;;;;;;18.35;100.00;101286.72;5093704;28;20032;-48
2023/09/12 02:57:40;;;;;;;0.00;0.00;;;;;;;18.37;100.00;101290.06;5094504;28;20035;-46
2023/09/12 03:00:08;;;;;;;0.00;0.00;;;;;;;18.38;100.00;101286.31;5097233;27;20134;-48
2023/09/12 03:02:33;;;;;;;0.00;0.00;;;;;;;18.41;100.00;101288.59;5096741;28;20032;-45
2023/09/12 03:04:59;;;;;;;0.00;0.00;;;;;;;18.43;100.00;101294.63;5097156;28;20020;-44
2023/09/12 03:07:24;;;;;;;0.00;0.00;;;;;;;18.45;100.00;101295.25;5103282;28;20035;-44
2023/09/12 03:09:49;;;;;;;0.00;0.00;;;;;;;18.46;100.00;101294.19;5093360;28;20085;-46
2023/09/12 03:12:15;;;;;;;0.00;0.00;;;;;;;18.49;100.00;101280.13;5104415;28;20104;-48
2023/09/12 03:14:41;;;;;;;0.00;0.00;;;;;;;18.53;100.00;101284.06;5098630;28;20024;-50
2023/09/12 03:17:06;;;;;;;0.00;0.00;;;;;;;18.54;100.00;101293.09;5112491;28;20032;-48
2023/09/12 03:19:31;;;;;;;0.00;0.00;;;;;;;18.56;100.00;101289.09;5095300;28;20466;-45
2023/09/12 03:21:57;;;;;;;0.00;0.00;;;;;;;18.62;100.00;101281.91;5093615;28;20089;-44
2023/09/12 03:24:24;;;;;;;0.00;0.00;;;;;;;18.62;100.00;101288.19;5104215;28;20518;-47
2023/09/12 03:26:50;;;;;;;0.00;0.00;;;;;;;18.63;100.00;101287.09;5103892;28;20028;-47
2023/09/12 03:29:15;;;;;;;0.00;0.00;;;;;;;18.67;100.00;101286.66;5093512;28;20028;-46
2023/09/12 03:31:40;;;;;;;0.00;0.00;;;;;;;18.67;100.00;101279.31;5093688;28;20032;-48
2023/09/12 03:34:06;;;;;;;0.00;0.00;;;;;;;18.69;100.00;101281.81;5096174;28;20119;-47
2023/09/12 03:36:31;;;;;;;0.00;0.00;;;;;;;18.69;100.00;101282.63;5109260;28;20031;-45
2023/09/12 03:38:57;;;;;;;0.00;0.00;;;;;;;18.70;100.00;101281.59;5101467;28;20062;-44
2023/09/12 03:41:25;;;;;;;0.00;0.00;;;;;;;18.71;100.00;101277.81;5120087;27;20019;-45
2023/09/12 03:43:52;;;;;;;0.00;0.00;;;;;;;18.73;100.00;101283.03;5118842;27;20114;-45
2023/09/12 03:46:17;;;;;;;0.00;0.00;;;;;;;18.76;100.00;101285.34;5106405;28;20117;-45
2023/09/12 03:48:43;;;;;;;0.00;0.00;;;;;;;18.77;100.00;101289.72;5108120;28;20044;-45
2023/09/12 03:51:08;;;;;;;0.00;0.00;;;;;;;18.74;100.00;101290.16;5114179;28;20023;-45
2023/09/12 03:53:33;;;;;;;0.00;0.00;;;;;;;18.73;100.00;101283.03;5113436;28;20051;-44
2023/09/12 03:55:59;;;;;;;0.00;0.00;;;;;;;18.72;100.00;101295.00;5102979;28;20331;-47
2023/09/12 03:58:25;;;;;;;0.00;0.00;;;;;;;18.71;100.00;101285.16;5111227;28;20331;-46
2023/09/12 04:00:50;;;;;;;0.00;0.00;;;;;;;18.70;100.00;101288.94;5105412;28;20448;-45
2023/09/12 04:03:16;;;;;;;0.00;0.00;;;;;;;18.70;100.00;101286.22;5102422;28;20024;-44
2023/09/12 04:05:41;;;;;;;0.00;0.00;;;;;;;18.72;100.00;101278.63;5110866;28;20166;-46
2023/09/12 04:08:07;;;;;;;0.00;0.00;;;;;;;18.72;100.00;101281.34;5111740;28;20451;-45
2023/09/12 04:10:32;;;;;;;0.00;0.00;;;;;;;18.73;100.00;101272.13;5109443;28;20035;-46
2023/09/12 04:12:58;;;;;;;0.00;0.00;;;;;;;18.75;100.00;101275.50;5112370;28;20020;-45
2023/09/12 04:15:23;;;;;;;0.00;0.00;;;;;;;18.77;100.00;101276.97;5093967;28;20455;-47
2023/09/12 04:17:48;;;;;;;0.00;0.00;;;;;;;18.76;100.00;101288.06;5100372;28;20372;-44
2023/09/12 04:20:14;;;;;;;0.00;0.00;;;;;;;18.75;100.00;101286.41;5102847;28;20115;-45
2023/09/12 04:22:41;;;;;;;0.00;0.00;;;;;;;18.75;100.00;101275.50;5092917;28;20063;-45
2023/09/12 04:25:07;;;;;;;0.00;0.00;;;;;;;18.75;100.00;101280.97;5092687;28;20081;-48
2023/09/12 04:27:32;;;;;;;0.00;0.00;;;;;;;18.73;100.00;101281.16;5098927;28;20039;-47
2023/09/12 04:29:57;;;;;;;0.00;0.00;;;;;;;18.73;100.00;101277.59;5099251;28;20032;-47
2023/09/12 04:32:23;;;;;;;0.00;0.00;;;;;;;18.72;100.00;101282.22;5099824;28;20478;-47
2023/09/12 04:34:51;;;;;;;0.00;0.00;;;;;;;18.72;100.00;101287.66;5107956;28;20550;-45
2023/09/12 04:37:16;;;;;;;0.00;0.00;;;;;;;18.71;100.00;101285.16;5097708;28;20501;-48
2023/09/12 04:39:42;;;;;;;0.00;0.00;;;;;;;18.70;100.00;101284.31;5101591;28;20028;-46
2023/09/12 04:42:07;;;;;;;0.00;0.00;;;;;;;18.70;100.00;101286.22;5091091;28;20028;-49
2023/09/12 04:44:40;;;;;;;0.00;0.00;;;;;;;18.69;100.00;101281.81;5090112;28;20042;-46
2023/09/12 04:47:05;;;;;;;0.00;0.00;;;;;;;18.68;100.00;101285.59;5099230;28;20500;-49
2023/09/12 04:49:31;;;;;;;0.00;0.00;;;;;;;18.69;100.00;101282.63;5090947;28;20036;-45
2023/09/12 04:51:56;;;;;;;0.00;0.00;;;;;;;18.71;100.00;101293.34;5109516;28;20039;-44
2023/09/12 04:54:21;;;;;;;0.00;0.00;;;;;;;18.68;100.00;101291.06;5110285;28;20041;-44
2023/09/12 04:56:47;;;;;;;0.00;0.00;;;;;;;18.67;100.00;101290.22;5096307;28;20039;-46
2023/09/12 04:59:13;;;;;;;0.00;0.00;;;;;;;18.65;100.00;101293.19;5110205;27;20055;-44
2023/09/12 05:01:38;;;;;;;0.00;0.00;;;;;;;18.68;100.00;101296.50;5094638;28;20035;-46
2023/09/12 05:04:03;;;;;;;0.00;0.00;;;;;;;18.70;100.00;101294.41;5096417;28;20118;-45
2023/09/12 05:06:29;;;;;;;0.00;0.00;;;;;;;18.72;100.00;101295.00;5100313;28;20064;-46
2023/09/12 05:08:54;;;;;;;0.00;0.00;;;;;;;18.73;100.00;101296.69;5095833;28;20024;-44
2023/09/12 05:11:22;;;;;;;0.00;0.00;;;;;;;18.73;100.00;101293.94;5094912;28;20106;-45
2023/09/12 05:13:47;;;;;;;0.00;0.00;;;;;;;18.75;100.00;101308.22;5112110;28;20059;-45
2023/09/12 05:16:12;;;;;;;0.00;0.00;;;;;;;18.75;100.00;101308.22;5106401;28;20154;-47
2023/09/12 05:18:38;;;;;;;0.00;0.00;;;;;;;18.76;100.00;101305.25;5094898;28;20161;-47
2023/09/12 05:21:03;;;;;;;0.00;0.00;;;;;;;18.80;100.00;101311.09;5098577;28;20066;-47
2023/09/12 05:23:28;;;;;;;0.00;0.00;;;;;;;18.82;100.00;101312.53;5112379;28;20306;-46
2023/09/12 05:25:54;;;;;;;0.00;0.00;;;;;;;18.87;100.00;101314.59;5102121;28;20028;-46
2023/09/12 05:28:19;;;;;;;0.00;0.00;;;;;;;18.90;100.00;101311.41;5102363;28;20111;-45
2023/09/12 05:30:44;;;;;;;0.00;0.00;;;;;;;18.93;100.00;101310.97;5099575;28;20035;-45
2023/09/12 05:33:10;;;;;;;0.00;0.00;;;;;;;18.91;100.00;101310.38;5099604;28;20542;-45
2023/09/12 05:35:37;;;;;;;0.00;0.00;;;;;;;18.94;100.00;101312.63;5095346;28;20028;-47
2023/09/12 05:38:02;;;;;;;0.00;0.00;;;;;;;18.93;100.00;101310.13;5098947;28;20020;-46
2023/09/12 05:40:28;;;;;;;0.00;0.00;;;;;;;18.94;100.00;101318.09;5097174;28;20027;-48
2023/09/12 05:42:53;;;;;;;0.00;0.00;;;;;;;18.97;100.00;101319.53;5093934;28;20474;-43
2023/09/12 05:45:19;;;;;;;0.00;0.00;;;;;;;18.99;100.00;101314.69;5112108;28;20308;-46
2023/09/12 05:47:44;;;;;;;0.00;0.00;;;;;;;19.00;100.00;101311.72;5096636;28;20507;-47
2023/09/12 05:50:11;;;;;;;0.00;0.00;;;;;;;19.03;100.00;101311.25;5098479;28;20024;-47
2023/09/12 05:52:37;;;;;;;0.00;0.00;;;;;;;19.03;100.00;101305.81;5105118;28;20030;-47
2023/09/12 05:55:04;;;;;;;0.00;0.00;;;;;;;19.01;100.00;101299.78;5111818;27;20277;-46
2023/09/12 05:57:33;;;;;;;0.00;0.00;;;;;;;19.00;100.00;101305.44;5103894;28;20032;-47
2023/09/12 05:59:59;;;;;;;0.00;0.00;;;;;;;18.96;100.00;101305.06;5096519;28;20048;-47
2023/09/12 06:02:25;;;;;;;0.00;0.00;;;;;;;18.96;100.00;101315.97;5095116;28;20478;-47
2023/09/12 06:04:50;;;;;;;0.00;0.00;;;;;;;18.98;100.00;101313.00;5100698;28;20027;-47
2023/09/12 06:07:16;;;;;;;0.00;0.00;;;;;;;18.93;100.00;101310.97;5103188;28;20040;-48
2023/09/12 06:09:41;;;;;;;0.00;0.00;;;;;;;18.98;100.00;101313.00;5104576;28;20387;-44
2023/09/12 06:12:07;;;;;;;0.00;0.00;;;;;;;19.03;100.00;101311.25;5094667;28;20028;-46
2023/09/12 06:14:32;;;;;;;0.00;0.00;;;;;;;19.06;100.00;101316.28;5099685;28;20478;-46
2023/09/12 06:16:58;;;;;;;0.00;0.00;;;;;;;19.10;100.00;101313.09;5103503;28;20026;-46
2023/09/12 06:19:23;;;;;;;0.00;0.00;;;;;;;19.13;100.00;101316.19;5099453;28;20115;-46
2023/09/12 06:21:49;;;;;;;0.00;0.00;;;;;;;19.18;100.00;101316.34;5095862;28;20031;-46
2023/09/12 06:24:25;;;;;;;0.00;0.00;;;;;;;19.27;100.00;101311.41;5107406;28;20041;-47
2023/09/12 06:26:50;;;;;;;0.00;0.00;;;;;;;19.29;100.00;101312.03;5102788;28;20042;-46
2023/09/12 06:29:16;;;;;;;0.00;0.00;;;;;;;19.38;100.00;101312.53;5112616;28;20113;-46
2023/09/12 06:31:41;;;;;;;0.00;0.00;;;;;;;19.42;100.00;101313.75;5107889;28;20032;-46
2023/09/12 06:34:07;;;;;;;0.00;0.00;;;;;;;19.46;100.00;101318.53;5103000;28;20465;-44
2023/09/12 06:36:33;;;;;;;0.00;0.00;;;;;;;19.50;100.00;101325.19;5079702;28;20957;-47
2023/09/12 06:38:59;;;;;;;0.00;0.00;;;;;;;19.66;100.00;101325.63;5103288;28;20461;-49
2023/09/12 06:41:25;;;;;;;0.00;0.00;;;;;;;19.78;100.00;101323.00;5104749;27;20066;-46
2023/09/12 06:43:51;;;;;;;0.00;0.00;;;;;;;19.82;100.00;101325.00;5106062;28;20106;-44
2023/09/12 06:46:17;;;;;;;0.00;0.00;;;;;;;19.79;100.00;101322.75;5102891;28;20110;-46
2023/09/12 06:48:45;;;;;;;0.00;0.00;;;;;;;19.74;100.00;101323.44;5106366;28;20040;-45
2023/09/12 06:51:11;;;;;;;0.00;0.00;;;;;;;19.76;100.00;101325.94;5107139;27;20474;-45
2023/09/12 06:53:37;;;;;;;0.00;0.00;;;;;;;19.74;100.00;101334.34;5108089;28;20035;-46
2023/09/12 06:56:04;;;;;;;0.00;0.00;;;;;;;19.73;100.00;101327.25;5107108;28;20039;-48
2023/09/12 06:58:29;;;;;;;0.00;0.00;;;;;;;19.58;100.00;101329.50;5105352;28;20150;-47
2023/09/12 07:00:55;;;;;;;0.00;0.00;;;;;;;19.61;100.00;101334.50;5103436;28;20565;-46
2023/09/12 07:03:21;;;;;;;0.00;0.00;;;;;;;19.56;100.00;101339.00;5108791;28;20414;-46
2023/09/12 07:05:46;;;;;;;0.00;0.00;;;;;;;19.67;100.00;101346.47;5105575;28;20074;-47
2023/09/12 07:08:11;;;;;;;0.00;0.00;;;;;;;19.64;100.00;101342.25;5107399;28;20027;-46
2023/09/12 07:10:37;;;;;;;0.00;0.00;;;;;;;19.66;100.00;101347.47;5108233;27;20034;-47
2023/09/12 07:13:02;;;;;;;0.00;0.00;;;;;;;19.63;100.00;101343.31;5108145;28;20036;-46
2023/09/12 07:15:28;;;;;;;0.00;0.00;;;;;;;19.60;100.00;101345.69;5107058;28;20450;-45
2023/09/12 07:17:53;;;;;;;0.00;0.00;;;;;;;19.62;100.00;101349.03;5108128;28;20031;-47
2023/09/12 07:20:20;;;;;;;0.00;0.00;;;;;;;19.62;100.00;101358.03;5106624;28;20031;-47
2023/09/12 07:22:46;;;;;;;0.00;0.00;;;;;;;19.62;100.00;101355.31;5108500;28;20374;-47
2023/09/12 07:25:13;;;;;;;0.00;0.00;;;;;;;19.72;100.00;101357.50;5103569;28;20476;-48
2023/09/12 07:27:38;;;;;;;0.00;0.00;;;;;;;19.74;100.00;101355.38;5105283;28;20031;-46
2023/09/12 07:30:05;;;;;;;0.00;0.00;;;;;;;19.96;100.00;101363.94;5108200;27;20047;-46
2023/09/12 07:32:30;;;;;;;0.00;0.00;;;;;;;20.11;100.00;101360.75;5107225;28;20035;-45
2023/09/12 07:34:56;;;;;;;0.00;0.00;;;;;;;20.36;100.00;101353.22;5105517;27;20015;-47
2023/09/12 07:37:21;;;;;;;0.00;0.00;;;;;;;20.49;100.00;101343.16;5103069;28;20031;-44
2023/09/12 07:39:46;;;;;;;0.00;0.00;;;;;;;20.77;100.00;101335.13;5105277;28;20354;-45
2023/09/12 07:42:12;;;;;;;0.00;0.00;;;;;;;21.06;100.00;101332.47;5107985;28;20020;-48
2023/09/12 07:44:37;;;;;;;0.00;0.00;;;;;;;21.17;100.00;101328.91;5106468;28;20114;-47
2023/09/12 07:47:03;;;;;;;0.00;0.00;;;;;;;21.25;100.00;101325.78;5107000;28;20040;-47
2023/09/12 07:49:28;;;;;;;0.00;0.00;;;;;;;21.18;100.00;101311.38;5106312;28;20036;-47
2023/09/12 07:51:56;;;;;;;0.00;0.00;;;;;;;21.06;100.00;101302.34;5107148;28;20043;-44
2023/09/12 07:54:22;;;;;;;0.00;0.00;;;;;;;20.88;100.00;101294.28;5107117;27;20443;-46
2023/09/12 07:56:47;;;;;;;0.00;0.00;;;;;;;20.91;100.00;101310.25;5108530;27;20127;-44
2023/09/12 07:59:14;;;;;;;0.00;0.00;;;;;;;20.87;100.00;101315.34;5108631;28;20124;-44
2023/09/12 08:01:39;;;;;;;0.00;0.00;;;;;;;20.81;100.00;101316.31;5104740;28;20331;-44
2023/09/12 08:04:05;;;;;;;0.00;0.00;;;;;;;20.78;100.00;101314.06;5106929;28;20519;-48
2023/09/12 08:06:31;;;;;;;0.00;0.00;;;;;;;20.74;100.00;101324.63;5103895;27;20032;-49
2023/09/12 08:08:56;;;;;;;0.00;0.00;;;;;;;20.81;100.00;101328.09;5108162;28;20028;-45
2023/09/12 08:11:21;;;;;;;0.00;0.00;;;;;;;20.99;100.00;101318.09;5109086;27;20028;-46
2023/09/12 08:13:49;;;;;;;0.00;0.00;;;;;;;21.10;100.00;101324.63;5109785;28;20122;-47
2023/09/12 08:16:15;;;;;;;0.00;0.00;;;;;;;21.38;100.00;101324.72;5108226;28;20027;-47
2023/09/12 08:18:40;;;;;;;0.00;0.00;;;;;;;21.53;100.00;101313.22;5104402;28;20428;-48
2023/09/12 08:21:05;;;;;;;0.00;0.00;;;;;;;21.82;100.00;101322.28;5106131;28;20081;-46
2023/09/12 08:23:31;;;;;;;0.00;0.00;;;;;;;22.34;100.00;101315.81;5106069;28;20039;-45
2023/09/12 08:25:56;;;;;;;0.00;0.00;;;;;;;22.67;100.00;101297.69;5107152;28;20030;-47
2023/09/12 08:28:22;;;;;;;0.00;0.00;;;;;;;22.96;100.00;101299.25;5107012;28;20477;-48
2023/09/12 08:30:47;;;;;;;0.00;0.00;;;;;;;23.16;100.00;101290.44;5106341;28;20106;-50
2023/09/12 08:33:12;;;;;;;0.00;0.00;;;;;;;23.09;100.00;101286.22;5107305;28;20085;-47
2023/09/12 08:35:38;;;;;;;0.00;0.00;;;;;;;23.16;100.00;101286.88;5107371;27;20104;-44
2023/09/12 08:38:03;;;;;;;0.00;0.00;;;;;;;23.65;100.00;101290.47;5105444;28;20039;-46
2023/09/12 08:40:30;;;;;;;0.00;0.00;;;;;;;24.22;100.00;101283.59;5106713;27;20023;-45
2023/09/12 08:42:57;;;;;;;0.00;0.00;;;;;;;24.24;100.00;101273.16;5107101;28;20129;-45
2023/09/12 08:45:23;;;;;;;0.00;0.00;;;;;;;23.95;100.00;101277.31;5106317;28;20338;-46
2023/09/12 08:47:53;;;;;;;0.00;0.00;;;;;;;23.70;100.00;101269.59;5106900;28;20042;-47
2023/09/12 08:50:20;;;;;;;0.00;0.00;;;;;;;23.84;100.00;101279.16;5104212;28;20023;-45
2023/09/12 08:52:46;;;;;;;0.00;0.00;;;;;;;24.06;100.00;101282.63;5106773;28;20425;-48
2023/09/12 08:55:12;;;;;;;0.00;0.00;;;;;;;24.48;100.00;101278.31;5106993;28;20119;-46
2023/09/12 08:57:42;;;;;;;0.00;0.00;;;;;;;24.85;100.00;101271.94;5100862;28;20394;-47
2023/09/12 09:00:14;;;;;;;0.00;0.00;;;;;;;25.10;100.00;101271.25;5101834;28;20058;-45
2023/09/12 09:02:40;;;;;;;0.00;0.00;;;;;;;25.28;100.00;101272.75;5104709;28;20039;-46
2023/09/12 09:05:06;;;;;;;0.00;0.00;;;;;;;25.44;100.00;101268.13;5103288;27;20126;-46
2023/09/12 09:07:35;;;;;;;0.00;0.00;;;;;;;25.26;100.00;101264.75;5103189;28;20075;-46
2023/09/12 09:10:04;;;;;;;0.00;0.00;;;;;;;25.07;100.00;101269.06;5102845;28;20041;-46
2023/09/12 09:12:30;;;;;;;0.00;0.00;;;;;;;24.70;100.00;101267.22;5104803;28;20058;-45
2023/09/12 09:14:55;;;;;;;0.00;0.00;;;;;;;24.80;100.00;101282.94;5101962;28;20489;-50
2023/09/12 09:17:21;;;;;;;0.00;0.00;;;;;;;24.79;100.00;101271.09;5104340;28;20101;-43
2023/09/12 09:19:47;;;;;;;0.00;0.00;;;;;;;24.99;100.00;101270.38;5102092;27;20058;-45
2023/09/12 09:22:13;;;;;;;0.00;0.00;;;;;;;25.11;100.00;101273.72;5103319;28;20035;-44
2023/09/12 09:24:38;;;;;;;0.00;0.00;;;;;;;24.96;100.00;101277.25;5100750;27;20024;-44
2023/09/12 09:27:04;;;;;;;0.00;0.00;;;;;;;24.68;100.00;101277.66;5103237;28;20071;-45
2023/09/12 09:29:31;;;;;;;0.00;0.00;;;;;;;24.73;100.00;101280.44;5101577;27;20504;-46
2023/09/12 09:31:57;;;;;;;;;;;;;;;24.64;100.00;101284.75;5106061;28;20209;-45
2023/09/12 09:34:24;;;;;;;0.00;0.00;;;;;;;24.66;100.00;101288.91;5104980;28;19939;-45
2023/09/12 09:36:53;;;;;;;0.00;0.00;;;;;;;24.56;100.00;101294.34;5098823;28;20081;-46
2023/09/12 09:39:23;;;;;;;0.00;0.00;;;;;;;24.71;100.00;101291.69;5100053;28;20032;-45
2023/09/12 09:41:53;;;;;;;0.00;0.00;;;;;;;25.02;100.00;101286.38;5099936;28;20023;-43
2023/09/12 09:44:21;;;;;;;0.00;0.00;;;;;;;24.83;100.00;101296.16;5098406;28;20038;-44
2023/09/12 09:46:51;;;;;;;0.00;0.00;;;;;;;24.96;100.00;101280.00;5098817;28;20019;-46
2023/09/12 09:49:18;;;;;;;0.00;0.00;;;;;;;25.06;100.00;101292.16;5102933;28;20112;-44
2023/09/12 09:51:44;;;;;;;0.10;0.00;;;;;;;25.43;100.00;101292.06;5099400;28;20034;-48
2023/09/12 09:54:11;;;;;;;0.00;0.00;;;;;;;25.30;100.00;101284.31;5102884;28;20373;-45
2023/09/12 09:56:45;;;;;;;0.00;0.00;;;;;;;25.03;100.00;101284.44;5104528;28;20145;-48
2023/09/12 09:59:18;;;;;;;0.00;0.00;;;;;;;24.87;100.00;101287.09;5101924;28;20074;-45
2023/09/12 10:01:45;;;;;;;0.00;0.00;;;;;;;24.68;100.00;101281.22;5103882;28;20044;-44
2023/09/12 10:04:10;;;;;;;0.00;0.00;;;;;;;24.43;100.00;101278.25;5109155;28;20060;-42
2023/09/12 10:06:37;;;;;;;0.00;0.00;;;;;;;24.54;100.00;101282.78;5107472;28;20104;-49
2023/09/12 10:09:06;;;;;;;0.00;0.00;;;;;;;24.23;100.00;101282.53;5107856;28;20108;-47
2023/09/12 10:11:33;;;;;;;0.00;0.00;;;;;;;24.07;100.00;101286.25;5103762;28;20123;-44
2023/09/12 10:14:01;;;;;;;0.00;0.00;;;;;;;24.08;100.00;101294.22;5104155;28;20024;-45
2023/09/12 10:16:32;;;;;;;0.00;0.00;;;;;;;24.10;100.00;101289.28;5103375;28;20024;-46
2023/09/12 10:19:36;;;;;;;0.00;0.00;;;;;;;24.19;100.00;101292.38;5105287;28;20023;-46
2023/09/12 10:22:23;;;;;;;0.00;0.00;;;;;;;24.37;100.00;101293.06;5106000;28;20020;-45
2023/09/12 10:24:49;;;;;;;;;;;;;;;24.36;100.00;101288.69;5105989;28;20032;-48
2023/09/12 10:27:15;;;;;;;0.00;0.00;;;;;;;24.45;100.00;101285.19;5087141;28;20222;-46
2023/09/12 10:29:40;;;;;;;0.00;0.00;;;;;;;24.48;100.00;101281.06;5105418;28;20387;-44
2023/09/12 10:32:06;;;;;;;0.00;0.00;;;;;;;24.43;100.00;101286.50;5104831;28;20508;-45
2023/09/12 10:34:34;;;;;;;0.00;0.00;;;;;;;24.38;100.00;101283.72;5104371;28;20159;-46
2023/09/12 10:37:00;;;;;;;0.00;0.00;;;;;;;24.25;100.00;101279.50;5105362;27;20028;-45
2023/09/12 10:39:28;;;;;;;0.00;0.00;;;;;;;24.21;100.00;101283.88;5103248;28;20030;-46
2023/09/12 10:41:54;;;;;;;0.00;0.00;;;;;;;24.22;100.00;101275.34;5106841;28;20020;-45
2023/09/12 10:44:21;;;;;;;0.00;0.00;;;;;;;24.22;100.00;101278.09;5109237;27;20384;-47
2023/09/12 10:46:47;;;;;;;0.00;0.00;;;;;;;24.35;100.00;101270.50;5107960;28;20030;-46
2023/09/12 10:49:14;;;;;;;0.00;0.00;;;;;;;24.38;100.00;101269.97;5108508;28;20024;-46
2023/09/12 10:51:40;;;;;;;0.00;0.00;;;;;;;24.34;100.00;101272.44;5107721;27;20039;-47
2023/09/12 10:54:07;;;;;;;0.00;0.00;;;;;;;24.49;100.00;101277.25;5107411;28;20372;-46
2023/09/12 10:56:33;;;;;;;0.00;0.00;;;;;;;24.64;100.00;101279.25;5107060;28;20031;-46
2023/09/12 10:59:03;;;;;;;0.00;0.00;;;;;;;24.76;100.00;101260.63;5108550;28;20024;-44
2023/09/12 11:01:30;;;;;;;0.00;0.00;;;;;;;24.89;100.00;101268.41;5107567;28;20114;-47
2023/09/12 11:03:55;;;;;;;0.00;0.00;;;;;;;24.87;100.00;101272.53;5108332;28;20026;-46
2023/09/12 11:06:23;;;;;;;0.00;0.00;;;;;;;24.82;100.00;101270.56;5108648;27;20024;-44
2023/09/12 11:09:13;;;;;;;0.00;0.00;;;;;;;24.83;100.00;101271.38;5108625;28;20019;-46
2023/09/12 11:11:39;;;;;;;0.00;0.00;;;;;;;24.78;100.00;101274.09;5107739;28;20113;-49
2023/09/12 11:14:05;;;;;;;0.00;0.00;;;;;;;24.66;100.00;101266.88;5107993;28;20097;-46